Latest Weather Observations for Hay Point

IDQ60801

Issued at 6:42 am EST Monday 28 September 2020 (issued every 10 minutes, with the page automatically refreshed every 10 minutes)

About weather observations | Map of weather stations | Latest weather observations for QLD | Other Formats
Station Details ID: 033317 Name: HAY POINT Lat: -21.29 Lon: 149.30 Height: 7.0 m
Data from the previous 72 hours. | See also: Recent months for locations in Queensland
Date/Time
EST
Temp
°C
App
Temp
°C
Dew
Point
°C
Rel
Hum
%
Delta-T
°C
Wind Press
QNH
hPa
Press
MSL
hPa
Rain since
9am
mm
Dir  Spd
km/h
Gust
km/h
Spd
kts
Gust
kts
28/06:30am - - - - - SSW 13 15 7 8 - - -
28/06:00am - - - - - SSW 13 17 7 9 - - -
28/05:30am - - - - - SSW 13 15 7 8 - - -
28/05:00am - - - - - SSW 13 15 7 8 - - -
28/04:30am - - - - - SSW 13 15 7 8 - - -
28/04:00am - - - - - SSW 13 15 7 8 - - -
28/03:30am - - - - - SSW 13 17 7 9 - - -
28/03:00am - - - - - SSW 9 11 5 6 - - -
28/02:30am - - - - - ESE 13 17 7 9 - - -
28/02:00am - - - - - E 13 17 7 9 - - -
28/01:30am - - - - - E 13 17 7 9 - - -
28/01:00am - - - - - ENE 15 17 8 9 - - -
28/12:30am - - - - - E 15 20 8 11 - - -
28/12:00am - - - - - E 17 20 9 11 - - -
 
Date/Time
EST
Temp
°C
App
Temp
°C
Dew
Point
°C
Rel
Hum
%
Delta-T
°C
Wind Press
QNH
hPa
Press
MSL
hPa
Rain since
9am
mm
Dir  Spd
km/h
Gust
km/h
Spd
kts
Gust
kts
27/11:30pm - - - - - ENE 17 20 9 11 - - -
27/11:00pm - - - - - ENE 17 20 9 11 - - -
27/10:30pm - - - - - E 15 17 8 9 - - -
27/10:00pm - - - - - ENE 19 22 10 12 - - -
27/09:30pm - - - - - ENE 20 24 11 13 - - -
27/09:00pm - - - - - ENE 20 26 11 14 - - -
27/08:30pm - - - - - ENE 24 28 13 15 - - -
27/08:00pm - - - - - E 24 30 13 16 - - -
27/07:30pm - - - - - E 28 30 15 16 - - -
27/07:00pm - - - - - E 24 28 13 15 - - -
27/06:30pm - - - - - E 26 30 14 16 - - -
27/06:00pm - - - - - E 28 33 15 18 - - -
27/05:30pm - - - - - E 30 35 16 19 - - -
27/05:00pm - - - - - E 30 35 16 19 - - -
27/04:30pm - - - - - E 30 33 16 18 - - -
27/04:00pm - - - - - ESE 28 33 15 18 - - -
27/03:30pm - - - - - ESE 28 37 15 20 - - -
27/03:00pm - - - - - ESE 30 35 16 19 - - -
27/02:30pm - - - - - ESE 28 33 15 18 - - -
27/02:00pm - - - - - ESE 28 33 15 18 - - -
27/01:30pm - - - - - ESE 26 33 14 18 - - -
27/01:00pm - - - - - SE 24 35 13 19 - - -
27/12:30pm - - - - - SE 28 35 15 19 - - -
27/12:00pm - - - - - ESE 30 35 16 19 - - -
27/11:30am - - - - - SE 24 30 13 16 - - -
27/11:00am - - - - - SE 28 33 15 18 - - -
27/10:30am - - - - - SE 30 37 16 20 - - -
27/10:00am - - - - - SSE 30 35 16 19 - - -
27/09:30am - - - - - SSE 30 35 16 19 - - -
27/09:00am - - - - - SSE 32 35 17 19 - - -
27/08:30am - - - - - SSE 32 37 17 20 - - -
27/08:00am - - - - - SSE 24 32 13 17 - - -
27/07:30am - - - - - SSE 22 30 12 16 - - -
27/07:00am - - - - - S 20 26 11 14 - - -
27/06:30am - - - - - SSW 19 24 10 13 - - -
27/06:00am - - - - - SSW 15 17 8 9 - - -
27/05:30am - - - - - SSW 13 17 7 9 - - -
27/05:00am - - - - - SSW 11 13 6 7 - - -
27/04:30am - - - - - SSW 11 11 6 6 - - -
27/04:00am - - - - - SSW 13 13 7 7 - - -
27/03:30am - - - - - S 9 11 5 6 - - -
27/03:00am - - - - - SSW 9 11 5 6 - - -
27/02:30am - - - - - CALM 0 0 0 0 - - -
27/02:00am - - - - - SSW 7 9 4 5 - - -
27/01:30am - - - - - CALM 0 0 0 0 - - -
27/01:00am - - - - - CALM 0 0 0 0 - - -
27/12:30am - - - - - SW 7 9 4 5 - - -
27/12:00am - - - - - CALM 0 0 0 0 - - -
 
Date/Time
EST
Temp
°C
App
Temp
°C
Dew
Point
°C
Rel
Hum
%
Delta-T
°C
Wind Press
QNH
hPa
Press
MSL
hPa
Rain since
9am
mm
Dir  Spd
km/h
Gust
km/h
Spd
kts
Gust
kts
26/11:30pm - - - - - SW 7 9 4 5 - - -
26/11:00pm - - - - - WSW 9 13 5 7 - - -
26/10:30pm - - - - - SW 9 11 5 6 - - -
26/10:00pm - - - - - WSW 11 15 6 8 - - -
26/09:30pm - - - - - W 11 15 6 8 - - -
26/09:00pm - - - - - WNW 9 13 5 7 - - -
26/08:30pm - - - - - W 9 11 5 6 - - -
26/08:00pm - - - - - NNW 15 19 8 10 - - -
26/07:30pm - - - - - NNW 15 20 8 11 - - -
26/07:00pm - - - - - NNW 15 19 8 10 - - -
26/06:30pm - - - - - NNW 15 19 8 10 - - -
26/06:00pm - - - - - N 15 17 8 9 - - -
26/05:30pm - - - - - N 11 15 6 8 - - -
26/05:00pm - - - - - N 13 17 7 9 - - -
26/04:30pm - - - - - NNE 20 26 11 14 - - -
26/04:00pm - - - - - NNE 26 30 14 16 - - -
26/03:30pm - - - - - NE 26 30 14 16 - - -
26/03:00pm - - - - - NE 28 32 15 17 - - -
26/02:30pm - - - - - NE 24 28 13 15 - - -
26/02:00pm - - - - - NE 28 32 15 17 - - -
26/01:30pm - - - - - NE 24 28 13 15 - - -
26/01:00pm - - - - - NE 24 26 13 14 - - -
26/12:30pm - - - - - NNE 20 24 11 13 - - -
26/12:00pm - - - - - NNE 17 19 9 10 - - -
26/11:30am - - - - - NNE 17 19 9 10 - - -
26/11:00am - - - - - NNE 15 17 8 9 - - -
26/10:30am - - - - - N 15 17 8 9 - - -
26/10:00am - - - - - NNE 13 15 7 8 - - -
26/09:30am - - - - - NNE 9 11 5 6 - - -
26/09:00am - - - - - NNE 9 11 5 6 - - -
26/08:30am - - - - - CALM 0 0 0 0 - - -
26/08:00am - - - - - SSW 2 6 1 3 - - -
26/07:30am - - - - - SSW 4 7 2 4 - - -
26/07:00am - - - - - SSW 7 9 4 5 - - -
26/06:30am - - - - - SW 7 7 4 4 - - -
26/06:00am - - - - - SW 9 13 5 7 - - -
26/05:30am - - - - - W 9 13 5 7 - - -
26/05:00am - - - - - WNW 9 11 5 6 - - -
26/04:30am - - - - - WNW 13 15 7 8 - - -
26/04:00am - - - - - WNW 11 15 6 8 - - -
26/03:30am - - - - - WSW 9 11 5 6 - - -
26/03:00am - - - - - WNW 15 20 8 11 - - -
26/02:30am - - - - - NW 22 30 12 16 - - -
26/02:00am - - - - - NNW 15 20 8 11 - - -
26/01:30am - - - - - NW 13 17 7 9 - - -
26/01:00am - - - - - WNW 13 15 7 8 - - -
26/12:30am - - - - - WNW 15 19 8 10 - - -
26/12:00am - - - - - W 13 20 7 11 - - -
 
Date/Time
EST
Temp
°C
App
Temp
°C
Dew
Point
°C
Rel
Hum
%
Delta-T
°C
Wind Press
QNH
hPa
Press
MSL
hPa
Rain since
9am
mm
Dir  Spd
km/h
Gust
km/h
Spd
kts
Gust
kts
25/11:30pm - - - - - NNW 26 32 14 17 - - -
25/11:00pm - - - - - NNW 28 33 15 18 - - -
25/10:30pm - - - - - NNW 26 33 14 18 - - -
25/10:00pm - - - - - NNW 32 39 17 21 - - -
25/09:30pm - - - - - N 33 39 18 21 - - -
25/09:00pm - - - - - N 33 41 18 22 - - -
25/08:30pm - - - - - N 32 37 17 20 - - -
25/08:00pm - - - - - N 33 37 18 20 - - -
25/07:30pm - - - - - N 32 35 17 19 - - -
25/07:00pm - - - - - N 32 35 17 19 - - -
25/06:30pm - - - - - N 32 35 17 19 - - -
25/06:00pm - - - - - N 30 33 16 18 - - -
25/05:30pm - - - - - N 28 33 15 18 - - -
25/05:00pm - - - - - N 32 39 17 21 - - -
25/04:30pm - - - - - N 33 39 18 21 - - -
25/04:00pm - - - - - N 32 37 17 20 - - -
25/03:30pm - - - - - N 33 39 18 21 - - -
25/03:00pm - - - - - N 30 33 16 18 - - -
25/02:30pm - - - - - N 28 30 15 16 - - -
25/02:00pm - - - - - N 26 30 14 16 - - -
25/01:30pm - - - - - NNE 28 32 15 17 - - -
25/01:00pm - - - - - NNE 28 32 15 17 - - -
25/12:30pm - - - - - NNE 28 32 15 17 - - -
25/12:00pm - - - - - NNE 26 30 14 16 - - -
25/11:30am - - - - - N 24 28 13 15 - - -
25/11:00am - - - - - N 17 20 9 11 - - -
25/10:30am - - - - - N 19 20 10 11 - - -
25/10:00am - - - - - N 15 17 8 9 - - -
25/09:30am - - - - - N 13 15 7 8 - - -
25/09:00am - - - - - N 13 15 7 8 - - -
25/08:30am - - - - - NNW 9 13 5 7 - - -
25/08:00am - - - - - NNW 9 11 5 6 - - -
25/07:30am - - - - - W 7 9 4 5 - - -
25/07:00am - - - - - W 4 7 2 4 - - -

Other formats

Comma delimited format used in spreadsheet applications
http://www.bom.gov.au/fwo/IDQ60801/IDQ60801.99367.axf

JavaScript Object Notation format (JSON) in row-major order
http://www.bom.gov.au/fwo/IDQ60801/IDQ60801.99367.json

Data quality

Most of these data are generated automatically and are frequently updated. Quality checks on data are not normally performed. It is possible for incorrect values to appear. Refer to information at About Latest Weather Observations and please check the disclaimer before using these data.